createdAt,value
2022-10-04T00:02:28.115Z,61.58
2022-10-04T00:05:31.331Z,61.57
2022-10-04T00:08:49.299Z,61.61
2022-10-04T00:11:54.131Z,61.60
2022-10-04T00:15:00.949Z,61.60
2022-10-04T00:18:12.074Z,61.57
2022-10-04T00:21:14.231Z,61.59
2022-10-04T00:24:21.935Z,61.60
2022-10-04T00:27:27.398Z,61.59
2022-10-04T00:30:37.979Z,61.58
2022-10-04T00:34:05.980Z,61.56
2022-10-04T00:37:15.402Z,61.56
2022-10-04T00:40:19.995Z,61.58
2022-10-04T00:43:38.943Z,61.57
2022-10-04T00:46:43.695Z,61.60
2022-10-04T00:49:46.806Z,61.60
2022-10-04T00:52:54.774Z,61.56
2022-10-04T00:56:00.675Z,61.56
2022-10-04T00:59:13.848Z,61.57
2022-10-04T01:02:22.861Z,61.56
2022-10-04T01:05:27.214Z,61.54
2022-10-04T01:08:33.338Z,61.56
2022-10-04T01:11:44.811Z,61.54
2022-10-04T01:15:04.726Z,61.58
2022-10-04T01:18:20.166Z,61.56
2022-10-04T01:21:29.391Z,61.56
2022-10-04T01:24:36.909Z,61.55
2022-10-04T01:27:44.107Z,61.54
2022-10-04T01:30:46.486Z,61.54
2022-10-04T01:33:48.640Z,61.57
2022-10-04T01:36:54.244Z,61.54
2022-10-04T01:39:56.387Z,61.54
2022-10-04T01:43:04.572Z,61.55
2022-10-04T01:46:20.382Z,61.54
2022-10-04T01:49:27.245Z,61.53
2022-10-04T01:52:46.769Z,61.54
2022-10-04T01:55:52.188Z,61.52
2022-10-04T01:59:02.833Z,61.53
2022-10-04T02:02:19.368Z,61.52
2022-10-04T02:05:33.228Z,61.54
2022-10-04T02:08:39.883Z,61.52
2022-10-04T02:11:44.472Z,61.50
2022-10-04T02:14:55.584Z,61.50
2022-10-04T02:17:59.096Z,61.52
2022-10-04T02:21:01.355Z,61.51
2022-10-04T02:24:04.163Z,61.48
2022-10-04T02:27:06.597Z,61.47
2022-10-04T02:30:11.376Z,61.47
2022-10-04T02:33:13.450Z,61.49
2022-10-04T02:36:17.107Z,61.45
2022-10-04T02:39:30.321Z,61.44
2022-10-04T02:42:44.688Z,61.43
2022-10-04T02:45:55.359Z,61.44
2022-10-04T02:49:00.977Z,61.43
2022-10-04T02:52:11.727Z,61.41
2022-10-04T02:55:19.857Z,61.42
2022-10-04T02:58:23.844Z,61.40
2022-10-04T03:01:29.160Z,61.41
2022-10-04T03:04:38.993Z,61.43
2022-10-04T03:07:42.039Z,61.41
2022-10-04T03:10:44.669Z,61.41
2022-10-04T03:13:49.477Z,61.41
2022-10-04T03:16:54.242Z,61.42
2022-10-04T03:19:57.672Z,61.38
2022-10-04T03:22:59.751Z,61.39
2022-10-04T03:26:17.759Z,61.41
2022-10-04T03:29:23.947Z,61.39
2022-10-04T03:32:30.360Z,61.38
2022-10-04T03:35:37.862Z,61.37
2022-10-04T03:38:40.752Z,61.38
2022-10-04T03:41:43.149Z,61.34
2022-10-04T03:44:46.969Z,61.38
2022-10-04T03:47:50.891Z,61.35
2022-10-04T03:50:54.102Z,61.37
2022-10-04T03:53:58.639Z,61.36
2022-10-04T03:57:03.924Z,61.36
2022-10-04T04:00:07.105Z,61.34
2022-10-04T04:03:15.160Z,61.34
2022-10-04T04:06:19.078Z,61.34
2022-10-04T04:09:56.092Z,61.34
2022-10-04T04:13:01.771Z,61.34
2022-10-04T04:16:05.482Z,61.34
2022-10-04T04:19:15.417Z,61.33
2022-10-04T04:22:18.784Z,61.31
2022-10-04T04:25:23.514Z,61.29
2022-10-04T04:28:31.937Z,61.28
2022-10-04T04:31:56.064Z,61.28
2022-10-04T04:35:06.789Z,61.30
2022-10-04T04:38:22.377Z,61.33
2022-10-04T04:41:26.131Z,61.32
2022-10-04T04:44:29.648Z,61.33
2022-10-04T04:47:38.267Z,61.32
2022-10-04T04:50:41.341Z,61.32
2022-10-04T04:53:43.663Z,61.32
2022-10-04T04:56:49.115Z,61.33
2022-10-04T04:59:56.786Z,61.35
2022-10-04T05:03:01.787Z,61.33
2022-10-04T05:06:05.036Z,61.31
2022-10-04T05:09:39.590Z,61.30
2022-10-04T05:12:42.003Z,61.32
2022-10-04T05:15:44.733Z,61.37
2022-10-04T05:18:47.353Z,61.47
2022-10-04T05:21:52.570Z,61.32
2022-10-04T05:25:02.935Z,61.41
2022-10-04T05:28:05.671Z,61.50
2022-10-04T05:31:32.154Z,61.55
2022-10-04T05:34:40.214Z,61.58
2022-10-04T05:37:55.867Z,61.51
2022-10-04T05:41:20.798Z,61.50
2022-10-04T05:44:46.611Z,61.47
2022-10-04T05:47:51.144Z,61.44
2022-10-04T05:50:53.287Z,61.50
2022-10-04T05:53:59.591Z,61.62
2022-10-04T05:57:15.796Z,61.61
2022-10-04T06:00:21.139Z,61.68
2022-10-04T06:03:36.743Z,61.70
2022-10-04T06:06:44.904Z,61.70
2022-10-04T06:10:01.762Z,61.71
2022-10-04T06:13:15.883Z,61.65
2022-10-04T06:16:46.811Z,61.66
2022-10-04T06:19:56.625Z,61.74
2022-10-04T06:23:01.917Z,61.76
2022-10-04T06:26:31.043Z,61.81
2022-10-04T06:29:38.799Z,61.83
2022-10-04T06:33:04.711Z,61.77
2022-10-04T06:36:25.732Z,61.79
2022-10-04T06:39:33.441Z,61.81
2022-10-04T06:42:39.158Z,61.92
2022-10-04T06:45:50.857Z,61.99
2022-10-04T06:49:13.977Z,62.02
2022-10-04T06:52:54.856Z,62.05
2022-10-04T06:56:35.765Z,62.18
2022-10-04T06:59:52.603Z,62.42
2022-10-04T07:03:13.544Z,62.12
2022-10-04T07:06:31.449Z,61.77
2022-10-04T07:09:34.080Z,61.10
2022-10-04T07:12:41.091Z,59.85
2022-10-04T07:15:54.655Z,60.12
2022-10-04T07:19:11.013Z,60.01
2022-10-04T07:22:43.090Z,60.12
2022-10-04T07:25:51.949Z,59.99
2022-10-04T07:29:16.836Z,59.96
2022-10-04T07:32:29.667Z,60.06
2022-10-04T07:35:50.514Z,60.06
2022-10-04T07:39:05.120Z,60.06
2022-10-04T07:42:37.459Z,60.07
2022-10-04T07:45:41.547Z,60.05
2022-10-04T07:48:43.959Z,60.03
2022-10-04T07:51:51.752Z,59.36
2022-10-04T07:55:05.589Z,59.28
2022-10-04T07:58:45.607Z,59.40
2022-10-04T08:02:07.186Z,59.37
2022-10-04T08:05:26.686Z,59.28
2022-10-04T08:08:42.065Z,59.43
2022-10-04T08:12:14.471Z,59.51
2022-10-04T08:15:25.452Z,59.28
2022-10-04T08:18:53.169Z,59.53
2022-10-04T08:22:19.585Z,59.28
2022-10-04T08:25:28.550Z,59.22
2022-10-04T08:29:16.851Z,59.10
2022-10-04T08:32:38.039Z,58.55
2022-10-04T08:36:01.459Z,58.57
2022-10-04T08:39:06.440Z,56.10
2022-10-04T08:42:23.783Z,56.45
2022-10-04T08:46:36.545Z,56.47
2022-10-04T08:50:19.341Z,55.30
2022-10-04T08:53:48.720Z,55.07
2022-10-04T08:57:20.228Z,55.58
2022-10-04T09:00:53.065Z,54.96
2022-10-04T09:04:16.665Z,54.68
2022-10-04T09:07:47.043Z,54.92
2022-10-04T09:11:11.595Z,55.45
2022-10-04T09:14:27.973Z,55.76
2022-10-04T09:17:53.297Z,55.96
2022-10-04T09:21:21.050Z,56.21
2022-10-04T09:24:34.983Z,56.41
2022-10-04T09:28:03.011Z,56.89
2022-10-04T09:31:27.979Z,57.26
2022-10-04T09:34:37.256Z,57.48
2022-10-04T09:37:58.589Z,57.60
2022-10-04T09:41:26.776Z,57.74
2022-10-04T09:44:49.059Z,57.62
2022-10-04T09:48:07.729Z,57.52
2022-10-04T09:51:30.194Z,57.29
2022-10-04T09:55:00.188Z,57.39
2022-10-04T09:58:16.647Z,56.90
2022-10-04T10:01:38.239Z,57.07
2022-10-04T10:04:52.069Z,56.73
2022-10-04T10:08:07.124Z,56.65
2022-10-04T10:12:27.579Z,56.78
2022-10-04T10:15:59.381Z,56.76
2022-10-04T10:19:11.476Z,57.02
2022-10-04T10:22:51.971Z,57.16
2022-10-04T10:26:12.521Z,57.16
2022-10-04T10:29:39.307Z,57.19
2022-10-04T10:33:00.229Z,57.23
2022-10-04T10:36:23.864Z,57.48
2022-10-04T10:39:39.605Z,57.62
2022-10-04T10:42:59.707Z,57.94
2022-10-04T10:46:07.124Z,58.38
2022-10-04T10:49:30.743Z,58.28
2022-10-04T10:52:59.730Z,58.31
2022-10-04T10:56:20.002Z,58.51
2022-10-04T10:59:40.920Z,58.44
2022-10-04T11:02:50.554Z,58.48
2022-10-04T11:06:18.999Z,58.45
2022-10-04T11:09:21.091Z,58.48
2022-10-04T11:12:42.947Z,58.09
2022-10-04T11:16:21.310Z,58.01
2022-10-04T11:19:54.907Z,58.25
2022-10-04T11:23:12.931Z,58.27
2022-10-04T11:26:46.662Z,58.70
2022-10-04T11:30:09.169Z,58.86
2022-10-04T11:33:42.492Z,58.95
2022-10-04T11:36:54.127Z,59.22
2022-10-04T11:40:00.282Z,59.16
2022-10-04T11:43:14.267Z,58.84
2022-10-04T11:46:33.659Z,58.70
2022-10-04T11:49:44.080Z,58.73
2022-10-04T11:52:49.467Z,58.79
2022-10-04T11:56:04.550Z,58.87
2022-10-04T11:59:30.765Z,58.80
2022-10-04T12:03:10.893Z,58.71
2022-10-04T12:06:14.052Z,58.75
2022-10-04T12:09:30.117Z,58.47
2022-10-04T12:12:54.025Z,58.51
2022-10-04T12:16:04.708Z,58.58
2022-10-04T12:19:24.881Z,58.67
2022-10-04T12:23:04.834Z,58.80
2022-10-04T12:26:32.241Z,58.80
2022-10-04T12:30:00.542Z,58.95
2022-10-04T12:33:38.197Z,59.06
2022-10-04T12:37:19.225Z,59.16
2022-10-04T12:40:28.633Z,59.12
2022-10-04T12:43:40.224Z,59.19
2022-10-04T12:46:42.528Z,59.16
2022-10-04T12:49:52.341Z,59.32
2022-10-04T12:53:15.685Z,59.34
2022-10-04T12:56:47.501Z,59.20
2022-10-04T13:00:15.133Z,59.09
2022-10-04T13:03:42.287Z,58.77
2022-10-04T13:07:07.070Z,58.78
2022-10-04T13:10:47.797Z,58.77
2022-10-04T13:14:11.322Z,58.48
2022-10-04T13:17:36.501Z,58.45
2022-10-04T13:20:58.216Z,58.36
2022-10-04T13:24:11.425Z,58.28
2022-10-04T13:27:18.822Z,58.31
2022-10-04T13:30:28.093Z,58.21
2022-10-04T13:33:59.008Z,57.92
2022-10-04T13:37:30.422Z,58.02
2022-10-04T13:40:58.825Z,57.81
2022-10-04T13:44:26.315Z,57.81
2022-10-04T13:48:21.653Z,58.13
2022-10-04T13:51:39.501Z,58.50
2022-10-04T13:55:13.331Z,56.49
2022-10-04T13:58:24.149Z,56.97
2022-10-04T14:01:38.105Z,57.30
2022-10-04T14:05:11.475Z,57.29
2022-10-04T14:08:40.982Z,56.33
2022-10-04T14:12:26.351Z,56.20
2022-10-04T14:15:47.537Z,56.63
2022-10-04T14:19:11.401Z,57.00
2022-10-04T14:22:35.430Z,57.10
2022-10-04T14:25:49.914Z,56.88
2022-10-04T14:29:09.527Z,57.02
2022-10-04T14:32:30.124Z,56.93
2022-10-04T14:35:44.882Z,56.49
2022-10-04T14:39:13.703Z,56.70
2022-10-04T14:42:40.139Z,57.08
2022-10-04T14:46:01.210Z,57.07
2022-10-04T14:49:11.538Z,57.11
2022-10-04T14:52:35.303Z,57.40
2022-10-04T14:55:53.636Z,57.78
2022-10-04T14:59:45.904Z,57.71
2022-10-04T15:03:19.571Z,57.63
2022-10-04T15:06:27.146Z,57.93
2022-10-04T15:10:03.114Z,57.90
2022-10-04T15:13:19.947Z,58.10
2022-10-04T15:16:47.282Z,58.27
2022-10-04T15:20:23.047Z,58.47
2022-10-04T15:23:39.116Z,58.56
2022-10-04T15:26:55.695Z,58.53
2022-10-04T15:30:30.783Z,58.40
2022-10-04T15:33:53.635Z,58.48
2022-10-04T15:37:44.123Z,58.63
2022-10-04T15:41:18.886Z,58.75
2022-10-04T15:44:58.504Z,58.86
2022-10-04T15:48:10.309Z,58.90
2022-10-04T15:51:42.352Z,59.05
2022-10-04T15:55:08.645Z,59.05
2022-10-04T15:58:52.878Z,59.09
2022-10-04T16:02:04.230Z,59.08
2022-10-04T16:05:30.582Z,59.09
2022-10-04T16:09:03.937Z,59.11
2022-10-04T16:12:20.219Z,59.22
2022-10-04T16:15:37.014Z,59.26
2022-10-04T16:18:44.784Z,59.32
2022-10-04T16:21:54.881Z,59.34
2022-10-04T16:25:19.059Z,59.32
2022-10-04T16:28:39.974Z,59.35
2022-10-04T16:31:57.424Z,59.42
2022-10-04T16:35:31.429Z,59.48
2022-10-04T16:39:03.163Z,59.49
2022-10-04T16:42:08.421Z,59.51
2022-10-04T16:45:12.282Z,59.57
2022-10-04T16:48:37.746Z,59.61
2022-10-04T16:52:21.375Z,59.67
2022-10-04T16:55:42.682Z,59.67
2022-10-04T16:59:05.896Z,59.73
2022-10-04T17:02:20.052Z,59.73
2022-10-04T17:05:40.724Z,59.74
2022-10-04T17:08:57.968Z,59.80
2022-10-04T17:12:18.068Z,59.82
2022-10-04T17:15:41.246Z,59.85
2022-10-04T17:19:14.153Z,59.88
2022-10-04T17:22:34.656Z,59.90
2022-10-04T17:25:46.622Z,59.90
2022-10-04T17:29:15.059Z,59.95
2022-10-04T17:32:50.595Z,59.90
2022-10-04T17:36:14.186Z,59.96
2022-10-04T17:39:46.908Z,59.96
2022-10-04T17:43:16.202Z,60.00
2022-10-04T17:46:30.034Z,60.01
2022-10-04T17:49:58.292Z,60.02
2022-10-04T17:53:23.115Z,60.01
2022-10-04T17:56:45.012Z,60.06
2022-10-04T17:59:51.762Z,60.07
2022-10-04T18:03:15.170Z,60.10
2022-10-04T18:06:28.072Z,60.12
2022-10-04T18:09:45.377Z,60.15
2022-10-04T18:13:11.424Z,60.22
2022-10-04T18:16:22.515Z,60.17
2022-10-04T18:19:44.310Z,60.20
2022-10-04T18:22:49.470Z,60.23
2022-10-04T18:25:55.176Z,60.16
2022-10-04T18:29:00.587Z,60.05
2022-10-04T18:32:18.406Z,59.99
2022-10-04T18:35:24.913Z,59.99
2022-10-04T18:38:33.209Z,59.97
2022-10-04T18:41:54.200Z,60.04
2022-10-04T18:45:01.597Z,60.11
2022-10-04T18:48:15.680Z,60.14
2022-10-04T18:51:26.195Z,60.18
2022-10-04T18:54:50.013Z,60.18
2022-10-04T18:58:40.526Z,60.18
2022-10-04T19:02:00.745Z,60.18
2022-10-04T19:05:40.251Z,60.15
2022-10-04T19:09:01.460Z,60.13
2022-10-04T19:12:15.620Z,60.12
2022-10-04T19:15:57.000Z,60.14
2022-10-04T19:19:06.182Z,60.09
2022-10-04T19:22:29.177Z,60.10
2022-10-04T19:25:39.319Z,60.12
2022-10-04T19:28:42.038Z,60.15
2022-10-04T19:32:01.970Z,60.12
2022-10-04T19:35:41.615Z,60.18
2022-10-04T19:38:44.171Z,60.16
2022-10-04T19:41:57.949Z,60.18
2022-10-04T19:45:20.644Z,60.22
2022-10-04T19:48:26.331Z,60.22
2022-10-04T19:51:50.950Z,60.27
2022-10-04T19:55:20.011Z,60.30
2022-10-04T19:58:47.064Z,60.32
2022-10-04T20:01:52.887Z,60.32
2022-10-04T20:04:56.637Z,60.35
2022-10-04T20:08:06.137Z,60.38
2022-10-04T20:11:51.966Z,60.38
2022-10-04T20:15:16.864Z,60.39
2022-10-04T20:18:33.904Z,60.41
2022-10-04T20:21:35.959Z,60.43
2022-10-04T20:24:37.934Z,60.44
2022-10-04T20:27:39.986Z,60.42
2022-10-04T20:30:53.453Z,60.44
2022-10-04T20:33:55.650Z,60.43
2022-10-04T20:36:57.825Z,60.43
2022-10-04T20:40:00.302Z,60.44
2022-10-04T20:43:14.616Z,60.50
2022-10-04T20:46:24.951Z,60.53
2022-10-04T20:49:27.124Z,60.54
2022-10-04T20:52:31.555Z,60.59
2022-10-04T20:55:36.057Z,60.60
2022-10-04T20:58:40.304Z,60.64
2022-10-04T21:01:45.197Z,60.64
2022-10-04T21:04:50.455Z,60.63
2022-10-04T21:08:11.499Z,60.64
2022-10-04T21:11:20.105Z,60.69
2022-10-04T21:14:29.683Z,60.73
2022-10-04T21:17:31.723Z,60.72
2022-10-04T21:20:51.129Z,60.74
2022-10-04T21:23:53.319Z,60.73
2022-10-04T21:26:59.659Z,60.74
2022-10-04T21:30:06.621Z,60.77
2022-10-04T21:33:08.742Z,60.80
2022-10-04T21:36:10.870Z,60.78
2022-10-04T21:39:12.903Z,60.80
2022-10-04T21:42:15.396Z,60.83
2022-10-04T21:45:17.410Z,60.80
2022-10-04T21:48:21.791Z,60.79
2022-10-04T21:51:23.859Z,60.80
2022-10-04T21:54:25.906Z,60.80
2022-10-04T21:57:31.901Z,60.83
2022-10-04T22:00:36.855Z,60.79
2022-10-04T22:03:38.875Z,60.83
2022-10-04T22:06:41.260Z,60.78
2022-10-04T22:09:43.297Z,60.83
2022-10-04T22:12:45.375Z,60.82
2022-10-04T22:15:47.372Z,60.83
2022-10-04T22:18:49.447Z,60.85
2022-10-04T22:21:51.525Z,60.87
2022-10-04T22:24:53.609Z,60.89
2022-10-04T22:27:55.671Z,60.84
2022-10-04T22:31:00.171Z,60.89
2022-10-04T22:34:02.268Z,60.89
2022-10-04T22:37:05.776Z,60.88
2022-10-04T22:40:17.179Z,60.88
2022-10-04T22:43:19.220Z,60.89
2022-10-04T22:46:21.585Z,60.89
2022-10-04T22:49:30.393Z,60.93
2022-10-04T22:52:32.412Z,60.90
2022-10-04T22:55:35.499Z,60.93
2022-10-04T22:58:37.569Z,60.93
2022-10-04T23:01:40.010Z,60.96
2022-10-04T23:04:49.210Z,60.95
2022-10-04T23:07:51.377Z,60.93
2022-10-04T23:10:55.489Z,60.97
2022-10-04T23:13:58.343Z,60.98
2022-10-04T23:17:01.268Z,60.97
2022-10-04T23:20:14.189Z,60.99
2022-10-04T23:23:20.960Z,61.00
2022-10-04T23:26:26.675Z,61.00
2022-10-04T23:29:32.492Z,60.97
2022-10-04T23:32:34.743Z,61.01
2022-10-04T23:35:36.791Z,61.02
2022-10-04T23:38:38.913Z,61.02
2022-10-04T23:41:42.594Z,61.04
2022-10-04T23:44:45.265Z,61.01
2022-10-04T23:47:53.353Z,61.05
2022-10-04T23:50:57.538Z,61.02
2022-10-04T23:53:59.763Z,61.05
2022-10-04T23:57:01.803Z,61.05
